sensor_id;sensor_type;location;lat;lon;timestamp;pressure;altitude;pressure_sealevel;temperature;humidity
12358;BME280;6243;51.244;6.774;2022-09-01T00:00:56;153893.81;;;25.41;42.36
12358;BME280;6243;51.244;6.774;2022-09-01T00:03:23;153914.41;;;25.49;41.61
12358;BME280;6243;51.244;6.774;2022-09-01T00:05:49;153933.72;;;25.57;42.08
12358;BME280;6243;51.244;6.774;2022-09-01T00:08:15;153927.28;;;25.54;42.14
12358;BME280;6243;51.244;6.774;2022-09-01T00:10:41;153891.22;;;25.40;42.34
12358;BME280;6243;51.244;6.774;2022-09-01T00:13:07;153891.22;;;25.40;42.76
12358;BME280;6243;51.244;6.774;2022-09-01T00:15:32;153914.41;;;25.49;42.71
12358;BME280;6243;51.244;6.774;2022-09-01T00:17:58;153924.72;;;25.53;42.68
12358;BME280;6243;51.244;6.774;2022-09-01T00:20:25;153899.00;;;25.43;42.46
12358;BME280;6243;51.244;6.774;2022-09-01T00:22:51;153853.97;;;25.25;43.54
12358;BME280;6243;51.244;6.774;2022-09-01T00:25:17;153877.13;;;25.34;43.10
12358;BME280;6243;51.244;6.774;2022-09-01T00:27:43;153852.69;;;25.25;43.46
12358;BME280;6243;51.244;6.774;2022-09-01T00:30:09;153857.81;;;25.27;43.33
12358;BME280;6243;51.244;6.774;2022-09-01T00:32:35;153895.13;;;25.42;43.07
12358;BME280;6243;51.244;6.774;2022-09-01T00:35:01;153861.66;;;25.28;43.15
12358;BME280;6243;51.244;6.774;2022-09-01T00:37:27;153873.22;;;25.33;42.71
12358;BME280;6243;51.244;6.774;2022-09-01T00:39:53;153862.97;;;25.29;42.99
12358;BME280;6243;51.244;6.774;2022-09-01T00:42:18;153870.69;;;25.32;43.17
12358;BME280;6243;51.244;6.774;2022-09-01T00:44:44;153902.84;;;25.45;42.54
12358;BME280;6243;51.244;6.774;2022-09-01T00:47:10;153899.00;;;25.43;42.43
12358;BME280;6243;51.244;6.774;2022-09-01T00:49:38;153861.66;;;25.28;43.34
12358;BME280;6243;51.244;6.774;2022-09-01T00:52:06;153814.16;;;25.10;43.58
12358;BME280;6243;51.244;6.774;2022-09-01T00:54:37;153725.41;;;24.75;44.75
12358;BME280;6243;51.244;6.774;2022-09-01T00:57:05;153767.84;;;24.92;44.59
12358;BME280;6243;51.244;6.774;2022-09-01T00:59:32;153742.16;;;24.82;44.08
12358;BME280;6243;51.244;6.774;2022-09-01T01:02:00;153749.88;;;24.85;44.72
12358;BME280;6243;51.244;6.774;2022-09-01T01:04:26;153729.31;;;24.77;44.29
12358;BME280;6243;51.244;6.774;2022-09-01T01:06:55;153706.13;;;24.67;44.85
12358;BME280;6243;51.244;6.774;2022-09-01T01:09:21;153744.69;;;24.83;44.22
12358;BME280;6243;51.244;6.774;2022-09-01T01:11:48;153706.13;;;24.67;45.54
12358;BME280;6243;51.244;6.774;2022-09-01T01:14:15;153716.41;;;24.72;45.19
12358;BME280;6243;51.244;6.774;2022-09-01T01:16:44;153721.53;;;24.74;45.13
12358;BME280;6243;51.244;6.774;2022-09-01T01:19:14;153707.44;;;24.68;46.11
12358;BME280;6243;51.244;6.774;2022-09-01T01:21:43;153706.13;;;24.67;46.01
12358;BME280;6243;51.244;6.774;2022-09-01T01:24:22;153709.97;;;24.69;45.71
12358;BME280;6243;51.244;6.774;2022-09-01T01:26:48;153726.75;;;24.76;45.52
12358;BME280;6243;51.244;6.774;2022-09-01T01:29:14;153724.13;;;24.75;45.46
12358;BME280;6243;51.244;6.774;2022-09-01T01:31:40;153728.00;;;24.76;45.45
12358;BME280;6243;51.244;6.774;2022-09-01T01:34:06;153635.47;;;24.40;45.70
12358;BME280;6243;51.244;6.774;2022-09-01T01:36:34;153713.84;;;24.71;45.20
12358;BME280;6243;51.244;6.774;2022-09-01T01:39:04;153721.53;;;24.74;44.69
12358;BME280;6243;51.244;6.774;2022-09-01T01:41:32;153683.00;;;24.58;45.63
12358;BME280;6243;51.244;6.774;2022-09-01T01:44:00;153670.16;;;24.53;45.44
12358;BME280;6243;51.244;6.774;2022-09-01T01:46:25;153706.13;;;24.67;45.06
12358;BME280;6243;51.244;6.774;2022-09-01T01:48:52;153713.84;;;24.71;45.03
12358;BME280;6243;51.244;6.774;2022-09-01T01:51:19;153667.59;;;24.52;45.30
12358;BME280;6243;51.244;6.774;2022-09-01T01:53:45;153716.41;;;24.72;45.36
12358;BME280;6243;51.244;6.774;2022-09-01T01:56:10;153706.13;;;24.67;45.77
12358;BME280;6243;51.244;6.774;2022-09-01T01:58:37;153729.31;;;24.77;45.50
12358;BME280;6243;51.244;6.774;2022-09-01T02:01:02;153717.69;;;24.72;45.70
12358;BME280;6243;51.244;6.774;2022-09-01T02:03:32;153679.16;;;24.57;45.67
12358;BME280;6243;51.244;6.774;2022-09-01T02:05:59;153656.03;;;24.48;46.47
12358;BME280;6243;51.244;6.774;2022-09-01T02:08:24;153658.59;;;24.49;46.81
12358;BME280;6243;51.244;6.774;2022-09-01T02:10:51;153659.88;;;24.49;46.20
12358;BME280;6243;51.244;6.774;2022-09-01T02:13:20;153643.19;;;24.43;47.09
12358;BME280;6243;51.244;6.774;2022-09-01T02:15:49;153598.25;;;24.25;47.14
12358;BME280;6243;51.244;6.774;2022-09-01T02:18:17;153587.94;;;24.21;46.98
12358;BME280;6243;51.244;6.774;2022-09-01T02:20:44;153554.56;;;24.08;47.12
12358;BME280;6243;51.244;6.774;2022-09-01T02:23:10;153571.25;;;24.15;47.25
12358;BME280;6243;51.244;6.774;2022-09-01T02:25:36;153587.94;;;24.21;47.38
12358;BME280;6243;51.244;6.774;2022-09-01T02:28:03;153578.97;;;24.18;47.15
12358;BME280;6243;51.244;6.774;2022-09-01T02:30:29;153554.56;;;24.08;47.67
12358;BME280;6243;51.244;6.774;2022-09-01T02:32:56;153471.03;;;23.75;48.40
12358;BME280;6243;51.244;6.774;2022-09-01T02:35:21;153530.09;;;23.98;47.54
12358;BME280;6243;51.244;6.774;2022-09-01T02:37:47;153535.22;;;24.00;47.99
12358;BME280;6243;51.244;6.774;2022-09-01T02:40:13;153501.84;;;23.87;48.14
12358;BME280;6243;51.244;6.774;2022-09-01T02:42:38;153495.44;;;23.85;48.64
12358;BME280;6243;51.244;6.774;2022-09-01T02:45:04;153501.84;;;23.87;48.62
12358;BME280;6243;51.244;6.774;2022-09-01T02:47:30;153463.34;;;23.72;48.58
12358;BME280;6243;51.244;6.774;2022-09-01T02:49:57;153460.75;;;23.71;48.85
12358;BME280;6243;51.244;6.774;2022-09-01T02:52:23;153455.63;;;23.69;48.73
12358;BME280;6243;51.244;6.774;2022-09-01T02:54:48;153377.34;;;23.39;49.32
12358;BME280;6243;51.244;6.774;2022-09-01T02:57:14;153480.03;;;23.79;48.38
12358;BME280;6243;51.244;6.774;2022-09-01T02:59:40;153503.16;;;23.88;48.09
12358;BME280;6243;51.244;6.774;2022-09-01T03:02:06;153450.50;;;23.67;48.53
12358;BME280;6243;51.244;6.774;2022-09-01T03:04:32;153454.34;;;23.69;48.49
12358;BME280;6243;51.244;6.774;2022-09-01T03:06:59;153405.56;;;23.50;48.94
12358;BME280;6243;51.244;6.774;2022-09-01T03:09:25;153395.28;;;23.46;49.13
12358;BME280;6243;51.244;6.774;2022-09-01T03:11:52;153418.38;;;23.55;48.79
12358;BME280;6243;51.244;6.774;2022-09-01T03:14:20;153436.34;;;23.62;48.92
12358;BME280;6243;51.244;6.774;2022-09-01T03:16:46;153431.22;;;23.60;49.01
12358;BME280;6243;51.244;6.774;2022-09-01T03:19:13;153387.59;;;23.43;49.38
12358;BME280;6243;51.244;6.774;2022-09-01T03:21:40;153413.25;;;23.53;48.81
12358;BME280;6243;51.244;6.774;2022-09-01T03:24:08;153404.28;;;23.49;49.33
12358;BME280;6243;51.244;6.774;2022-09-01T03:26:34;153423.56;;;23.57;49.00
12358;BME280;6243;51.244;6.774;2022-09-01T03:29:01;153406.81;;;23.50;49.29
12358;BME280;6243;51.244;6.774;2022-09-01T03:31:27;153359.31;;;23.32;49.43
12358;BME280;6243;51.244;6.774;2022-09-01T03:33:54;153451.78;;;23.68;48.37
12358;BME280;6243;51.244;6.774;2022-09-01T03:36:19;153420.97;;;23.56;49.05
12358;BME280;6243;51.244;6.774;2022-09-01T03:38:45;153392.72;;;23.45;49.22
12358;BME280;6243;51.244;6.774;2022-09-01T03:41:14;153390.16;;;23.44;49.23
12358;BME280;6243;51.244;6.774;2022-09-01T03:43:39;153331.09;;;23.20;49.34
12358;BME280;6243;51.244;6.774;2022-09-01T03:46:05;153325.91;;;23.18;49.76
12358;BME280;6243;51.244;6.774;2022-09-01T03:48:31;153363.16;;;23.33;49.15
12358;BME280;6243;51.244;6.774;2022-09-01T03:50:59;153391.44;;;23.44;49.29
12358;BME280;6243;51.244;6.774;2022-09-01T03:53:24;153404.28;;;23.49;49.20
12358;BME280;6243;51.244;6.774;2022-09-01T03:55:50;153355.44;;;23.30;49.52
12358;BME280;6243;51.244;6.774;2022-09-01T03:58:18;153377.34;;;23.39;49.28
12358;BME280;6243;51.244;6.774;2022-09-01T04:00:46;153367.03;;;23.35;49.34
12358;BME280;6243;51.244;6.774;2022-09-01T04:03:13;153300.28;;;23.08;50.19
12358;BME280;6243;51.244;6.774;2022-09-01T04:05:42;153297.69;;;23.07;50.15
12358;BME280;6243;51.244;6.774;2022-09-01T04:08:09;153259.19;;;22.92;50.56
12358;BME280;6243;51.244;6.774;2022-09-01T04:10:42;153292.56;;;23.05;50.40
12358;BME280;6243;51.244;6.774;2022-09-01T04:13:08;153319.50;;;23.16;49.76
12358;BME280;6243;51.244;6.774;2022-09-01T04:15:36;153351.59;;;23.28;49.37
12358;BME280;6243;51.244;6.774;2022-09-01T04:18:02;153351.59;;;23.28;49.79
12358;BME280;6243;51.244;6.774;2022-09-01T04:20:28;153328.50;;;23.19;49.54
12358;BME280;6243;51.244;6.774;2022-09-01T04:22:54;153325.91;;;23.18;49.76
12358;BME280;6243;51.244;6.774;2022-09-01T04:25:20;153327.19;;;23.19;49.86
12358;BME280;6243;51.244;6.774;2022-09-01T04:27:45;153298.97;;;23.08;50.35
12358;BME280;6243;51.244;6.774;2022-09-01T04:30:11;153346.47;;;23.26;49.52
12358;BME280;6243;51.244;6.774;2022-09-01T04:32:38;153325.91;;;23.18;49.63
12358;BME280;6243;51.244;6.774;2022-09-01T04:35:05;153318.25;;;23.15;49.93
12358;BME280;6243;51.244;6.774;2022-09-01T04:37:31;153307.94;;;23.11;49.83
12358;BME280;6243;51.244;6.774;2022-09-01T04:39:56;153342.63;;;23.25;49.45
12358;BME280;6243;51.244;6.774;2022-09-01T04:42:23;153381.19;;;23.40;48.84
12358;BME280;6243;51.244;6.774;2022-09-01T04:44:49;153377.34;;;23.39;48.73
12358;BME280;6243;51.244;6.774;2022-09-01T04:47:15;153367.03;;;23.35;49.00
12358;BME280;6243;51.244;6.774;2022-09-01T04:49:42;153346.47;;;23.26;49.36
12358;BME280;6243;51.244;6.774;2022-09-01T04:52:08;153370.91;;;23.36;49.15
12358;BME280;6243;51.244;6.774;2022-09-01T04:54:33;153394.03;;;23.45;48.63
12358;BME280;6243;51.244;6.774;2022-09-01T04:56:59;153387.59;;;23.43;49.03
12358;BME280;6243;51.244;6.774;2022-09-01T04:59:25;153365.78;;;23.34;49.27
12358;BME280;6243;51.244;6.774;2022-09-01T05:01:50;153387.59;;;23.43;48.72
12358;BME280;6243;51.244;6.774;2022-09-01T05:04:18;153338.75;;;23.23;49.23
12358;BME280;6243;51.244;6.774;2022-09-01T05:06:47;153314.38;;;23.14;49.57
12358;BME280;6243;51.244;6.774;2022-09-01T05:09:13;153310.53;;;23.12;49.66
12358;BME280;6243;51.244;6.774;2022-09-01T05:11:40;153307.94;;;23.11;50.08
12358;BME280;6243;51.244;6.774;2022-09-01T05:14:06;153350.31;;;23.28;49.78
12358;BME280;6243;51.244;6.774;2022-09-01T05:16:32;153307.94;;;23.11;50.09
12358;BME280;6243;51.244;6.774;2022-09-01T05:18:59;153342.63;;;23.25;49.96
12358;BME280;6243;51.244;6.774;2022-09-01T05:21:24;153359.31;;;23.32;49.68
12358;BME280;6243;51.244;6.774;2022-09-01T05:23:51;153354.19;;;23.29;49.85
12358;BME280;6243;51.244;6.774;2022-09-01T05:26:19;153392.72;;;23.45;49.44
12358;BME280;6243;51.244;6.774;2022-09-01T05:28:47;153410.72;;;23.52;49.41
12358;BME280;6243;51.244;6.774;2022-09-01T05:31:13;153455.63;;;23.69;49.38
12358;BME280;6243;51.244;6.774;2022-09-01T05:33:39;153367.03;;;23.35;50.37
12358;BME280;6243;51.244;6.774;2022-09-01T05:36:05;153408.13;;;23.51;49.56
12358;BME280;6243;51.244;6.774;2022-09-01T05:38:30;153426.09;;;23.58;49.60
12358;BME280;6243;51.244;6.774;2022-09-01T05:40:59;153504.44;;;23.88;48.45
12358;BME280;6243;51.244;6.774;2022-09-01T05:43:25;153530.09;;;23.98;48.86
12358;BME280;6243;51.244;6.774;2022-09-01T05:45:51;153549.41;;;24.06;48.11
12358;BME280;6243;51.244;6.774;2022-09-01T05:48:16;153567.41;;;24.13;48.40
12358;BME280;6243;51.244;6.774;2022-09-01T05:50:42;153593.06;;;24.23;47.81
12358;BME280;6243;51.244;6.774;2022-09-01T05:53:08;153608.50;;;24.29;47.86
12358;BME280;6243;51.244;6.774;2022-09-01T05:55:36;153626.50;;;24.36;47.82
12358;BME280;6243;51.244;6.774;2022-09-01T05:58:03;153690.72;;;24.61;46.98
12358;BME280;6243;51.244;6.774;2022-09-01T06:00:28;153634.16;;;24.39;47.70
12358;BME280;6243;51.244;6.774;2022-09-01T06:02:54;153658.59;;;24.49;47.55
12358;BME280;6243;51.244;6.774;2022-09-01T06:05:19;153675.28;;;24.55;46.88
12358;BME280;6243;51.244;6.774;2022-09-01T06:07:45;153688.13;;;24.60;46.97
12358;BME280;6243;51.244;6.774;2022-09-01T06:10:10;153695.88;;;24.63;47.29
12358;BME280;6243;51.244;6.774;2022-09-01T06:12:35;153758.88;;;24.88;46.93
12358;BME280;6243;51.244;6.774;2022-09-01T06:15:03;153821.81;;;25.13;46.61
12358;BME280;6243;51.244;6.774;2022-09-01T06:17:29;153861.66;;;25.28;45.53
12358;BME280;6243;51.244;6.774;2022-09-01T06:19:55;153812.84;;;25.09;45.67
12358;BME280;6243;51.244;6.774;2022-09-01T06:22:21;153837.28;;;25.19;45.68
12358;BME280;6243;51.244;6.774;2022-09-01T06:24:47;153839.81;;;25.20;45.86
12358;BME280;6243;51.244;6.774;2022-09-01T06:27:13;153841.13;;;25.20;46.20
12358;BME280;6243;51.244;6.774;2022-09-01T06:29:38;153891.22;;;25.40;45.72
12358;BME280;6243;51.244;6.774;2022-09-01T06:32:06;153880.94;;;25.36;45.41
12358;BME280;6243;51.244;6.774;2022-09-01T06:34:32;153945.28;;;25.61;45.24
12358;BME280;6243;51.244;6.774;2022-09-01T06:36:57;153980.00;;;25.75;45.50
12358;BME280;6243;51.244;6.774;2022-09-01T06:39:23;154017.31;;;25.89;45.07
12358;BME280;6243;51.244;6.774;2022-09-01T06:41:49;154049.44;;;26.02;45.05
12358;BME280;6243;51.244;6.774;2022-09-01T06:44:15;154066.13;;;26.08;45.00
12358;BME280;6243;51.244;6.774;2022-09-01T06:46:40;154103.50;;;26.23;44.35
12358;BME280;6243;51.244;6.774;2022-09-01T06:49:07;154129.19;;;26.33;44.14
12358;BME280;6243;51.244;6.774;2022-09-01T06:51:33;154163.94;;;26.47;43.95
12358;BME280;6243;51.244;6.774;2022-09-01T06:53:58;154192.28;;;26.58;43.80
12358;BME280;6243;51.244;6.774;2022-09-01T06:56:25;154219.28;;;26.68;43.81
12358;BME280;6243;51.244;6.774;2022-09-01T06:58:52;154241.19;;;26.77;42.87
12358;BME280;6243;51.244;6.774;2022-09-01T07:01:19;154257.91;;;26.84;42.50
12358;BME280;6243;51.244;6.774;2022-09-01T07:03:47;154353.16;;;27.21;41.57
12358;BME280;6243;51.244;6.774;2022-09-01T07:06:14;154395.69;;;27.37;41.16
12358;BME280;6243;51.244;6.774;2022-09-01T07:08:40;154447.16;;;27.58;40.97
12358;BME280;6243;51.244;6.774;2022-09-01T07:11:08;154521.84;;;27.87;40.18
12358;BME280;6243;51.244;6.774;2022-09-01T07:13:40;154592.72;;;28.15;39.60
12358;BME280;6243;51.244;6.774;2022-09-01T07:16:06;154655.81;;;28.39;38.88
12358;BME280;6243;51.244;6.774;2022-09-01T07:18:32;154526.97;;;27.89;39.61
12358;BME280;6243;51.244;6.774;2022-09-01T07:20:58;154663.56;;;28.42;39.86
12358;BME280;6243;51.244;6.774;2022-09-01T07:23:26;154706.13;;;28.59;39.37
12358;BME280;6243;51.244;6.774;2022-09-01T07:25:51;154758.94;;;28.79;39.03
12358;BME280;6243;51.244;6.774;2022-09-01T07:28:17;154816.94;;;29.02;39.04
12358;BME280;6243;51.244;6.774;2022-09-01T07:30:44;154862.06;;;29.20;37.40
12358;BME280;6243;51.244;6.774;2022-09-01T07:33:10;154849.13;;;29.15;37.48
12358;BME280;6243;51.244;6.774;2022-09-01T07:35:37;154914.91;;;29.40;36.59
12358;BME280;6243;51.244;6.774;2022-09-01T07:38:02;154951.00;;;29.55;36.37
12358;BME280;6243;51.244;6.774;2022-09-01T07:40:29;155029.66;;;29.85;36.95
12358;BME280;6243;51.244;6.774;2022-09-01T07:42:55;155078.69;;;30.04;35.73
12358;BME280;6243;51.244;6.774;2022-09-01T07:45:20;155073.53;;;30.02;35.73
12358;BME280;6243;51.244;6.774;2022-09-01T07:47:46;155145.72;;;30.31;35.18
12358;BME280;6243;51.244;6.774;2022-09-01T07:50:12;155153.50;;;30.34;34.89
12358;BME280;6243;51.244;6.774;2022-09-01T07:52:38;155199.94;;;30.52;34.77
12358;BME280;6243;51.244;6.774;2022-09-01T07:55:05;155206.41;;;30.54;34.15
12358;BME280;6243;51.244;6.774;2022-09-01T07:57:32;155263.13;;;30.76;33.81
12358;BME280;6243;51.244;6.774;2022-09-01T07:59:57;155316.09;;;30.97;34.22
12358;BME280;6243;51.244;6.774;2022-09-01T08:02:23;155339.31;;;31.06;33.22
12358;BME280;6243;51.244;6.774;2022-09-01T08:04:48;155441.31;;;31.46;33.17
12358;BME280;6243;51.244;6.774;2022-09-01T08:07:14;155468.41;;;31.57;33.03
12358;BME280;6243;51.244;6.774;2022-09-01T08:09:39;155421.91;;;31.38;31.95
12358;BME280;6243;51.244;6.774;2022-09-01T08:12:06;155465.84;;;31.56;31.57
12358;BME280;6243;51.244;6.774;2022-09-01T08:14:33;155449.03;;;31.49;31.35
12358;BME280;6243;51.244;6.774;2022-09-01T08:16:59;155428.34;;;31.41;31.12
12358;BME280;6243;51.244;6.774;2022-09-01T08:19:25;155365.13;;;31.16;32.04
12358;BME280;6243;51.244;6.774;2022-09-01T08:21:50;155294.16;;;30.89;31.94
12358;BME280;6243;51.244;6.774;2022-09-01T08:24:16;155218.00;;;30.59;31.46
12358;BME280;6243;51.244;6.774;2022-09-01T08:26:41;155149.66;;;30.32;32.40
12358;BME280;6243;51.244;6.774;2022-09-01T08:29:07;155051.56;;;29.94;31.72
12358;BME280;6243;51.244;6.774;2022-09-01T08:31:34;155119.94;;;30.21;31.32
12358;BME280;6243;51.244;6.774;2022-09-01T08:33:59;155205.09;;;30.54;31.51
12358;BME280;6243;51.244;6.774;2022-09-01T08:36:25;155055.47;;;29.95;31.49
12358;BME280;6243;51.244;6.774;2022-09-01T08:38:51;154947.09;;;29.53;31.35
12358;BME280;6243;51.244;6.774;2022-09-01T08:41:25;155140.56;;;30.29;30.74
12358;BME280;6243;51.244;6.774;2022-09-01T08:44:02;155183.19;;;30.45;30.22
12358;BME280;6243;51.244;6.774;2022-09-01T08:46:37;155065.78;;;29.99;30.17
12358;BME280;6243;51.244;6.774;2022-09-01T08:49:07;155079.97;;;30.05;31.34
12358;BME280;6243;51.244;6.774;2022-09-01T08:51:36;155032.25;;;29.86;30.57
12358;BME280;6243;51.244;6.774;2022-09-01T08:54:09;155069.63;;;30.01;30.64
12358;BME280;6243;51.244;6.774;2022-09-01T08:56:40;155081.22;;;30.05;30.63
12358;BME280;6243;51.244;6.774;2022-09-01T08:59:07;155212.84;;;30.57;30.35
12358;BME280;6243;51.244;6.774;2022-09-01T09:01:39;155313.53;;;30.96;29.46
12358;BME280;6243;51.244;6.774;2022-09-01T09:04:29;155273.44;;;30.80;28.70
12358;BME280;6243;51.244;6.774;2022-09-01T09:07:03;155450.31;;;31.49;28.39
12358;BME280;6243;51.244;6.774;2022-09-01T09:09:38;155517.47;;;31.76;27.20
12358;BME280;6243;51.244;6.774;2022-09-01T09:12:20;155489.06;;;31.65;26.69
12358;BME280;6243;51.244;6.774;2022-09-01T09:14:59;155521.31;;;31.77;26.92
12358;BME280;6243;51.244;6.774;2022-09-01T09:17:33;155605.31;;;32.10;26.36
12358;BME280;6243;51.244;6.774;2022-09-01T09:20:01;155686.66;;;32.42;26.21
12358;BME280;6243;51.244;6.774;2022-09-01T09:22:27;155709.94;;;32.51;25.15
12358;BME280;6243;51.244;6.774;2022-09-01T09:24:58;155682.75;;;32.40;25.11
12358;BME280;6243;51.244;6.774;2022-09-01T09:27:28;155752.56;;;32.67;25.35
12358;BME280;6243;51.244;6.774;2022-09-01T09:29:55;155744.81;;;32.64;25.66
12358;BME280;6243;51.244;6.774;2022-09-01T09:32:23;155832.63;;;32.99;25.11
12358;BME280;6243;51.244;6.774;2022-09-01T09:34:50;155872.72;;;33.14;24.71
12358;BME280;6243;51.244;6.774;2022-09-01T09:37:21;155800.31;;;32.86;25.09
12358;BME280;6243;51.244;6.774;2022-09-01T09:40:03;155677.56;;;32.38;25.28
12358;BME280;6243;51.244;6.774;2022-09-01T09:42:29;155758.97;;;32.70;24.76
12358;BME280;6243;51.244;6.774;2022-09-01T09:44:55;155872.72;;;33.14;25.15
12358;BME280;6243;51.244;6.774;2022-09-01T09:47:34;155980.03;;;33.56;24.74
12358;BME280;6243;51.244;6.774;2022-09-01T09:50:21;155967.06;;;33.51;24.44
12358;BME280;6243;51.244;6.774;2022-09-01T09:52:48;156048.50;;;33.83;24.28
12358;BME280;6243;51.244;6.774;2022-09-01T09:55:25;156111.88;;;34.07;23.71
12358;BME280;6243;51.244;6.774;2022-09-01T09:57:54;156139.06;;;34.18;23.74
12358;BME280;6243;51.244;6.774;2022-09-01T10:00:23;156088.56;;;33.98;23.81
12358;BME280;6243;51.244;6.774;2022-09-01T10:02:53;156080.84;;;33.95;24.30
12358;BME280;6243;51.244;6.774;2022-09-01T10:05:30;156049.81;;;33.83;23.70
12358;BME280;6243;51.244;6.774;2022-09-01T10:07:58;156122.22;;;34.11;24.32
12358;BME280;6243;51.244;6.774;2022-09-01T10:10:27;156082.09;;;33.96;23.52
12358;BME280;6243;51.244;6.774;2022-09-01T10:12:53;155969.72;;;33.52;23.78
12358;BME280;6243;51.244;6.774;2022-09-01T10:15:20;155948.97;;;33.44;24.29
12358;BME280;6243;51.244;6.774;2022-09-01T10:17:47;156013.63;;;33.69;24.19
12358;BME280;6243;51.244;6.774;2022-09-01T10:20:18;156127.44;;;34.13;23.68
12358;BME280;6243;51.244;6.774;2022-09-01T10:22:46;156242.53;;;34.58;23.98
12358;BME280;6243;51.244;6.774;2022-09-01T10:25:15;156283.91;;;34.74;23.14
12358;BME280;6243;51.244;6.774;2022-09-01T10:27:43;156340.78;;;34.96;23.88
12358;BME280;6243;51.244;6.774;2022-09-01T10:30:13;156283.91;;;34.74;22.95
12358;BME280;6243;51.244;6.774;2022-09-01T10:32:42;156181.69;;;34.35;23.60
12358;BME280;6243;51.244;6.774;2022-09-01T10:35:13;156261.94;;;34.66;24.12
12358;BME280;6243;51.244;6.774;2022-09-01T10:37:41;156395.19;;;35.18;23.28
12358;BME280;6243;51.244;6.774;2022-09-01T10:40:33;156430.09;;;35.31;23.54
12358;BME280;6243;51.244;6.774;2022-09-01T10:43:35;156216.59;;;34.48;23.21
12358;BME280;6243;51.244;6.774;2022-09-01T10:46:08;156082.09;;;33.96;23.89
12358;BME280;6243;51.244;6.774;2022-09-01T10:48:34;156159.72;;;34.26;23.85
12358;BME280;6243;51.244;6.774;2022-09-01T10:53:59;156120.97;;;34.11;24.11
12358;BME280;6243;51.244;6.774;2022-09-01T10:56:36;156273.56;;;34.70;23.97
12358;BME280;6243;51.244;6.774;2022-09-01T10:59:07;156339.50;;;34.96;23.24
12358;BME280;6243;51.244;6.774;2022-09-01T11:02:08;156379.69;;;35.12;23.93
12358;BME280;6243;51.244;6.774;2022-09-01T11:07:36;156277.44;;;34.72;23.40
12358;BME280;6243;51.244;6.774;2022-09-01T11:10:25;156456.00;;;35.41;22.97
12358;BME280;6243;51.244;6.774;2022-09-01T11:13:23;156230.88;;;34.54;23.72
12358;BME280;6243;51.244;6.774;2022-09-01T11:15:54;156393.88;;;35.17;22.92
12358;BME280;6243;51.244;6.774;2022-09-01T11:18:24;156324.00;;;34.90;22.98
12358;BME280;6243;51.244;6.774;2022-09-01T11:20:51;156348.56;;;35.00;23.00
12358;BME280;6243;51.244;6.774;2022-09-01T11:23:22;156260.63;;;34.65;23.61
12358;BME280;6243;51.244;6.774;2022-09-01T11:25:50;156119.66;;;34.10;23.85
12358;BME280;6243;51.244;6.774;2022-09-01T11:28:35;156078.25;;;33.94;24.11
12358;BME280;6243;51.244;6.774;2022-09-01T11:33:55;156084.72;;;33.97;24.79
12358;BME280;6243;51.244;6.774;2022-09-01T11:36:28;156091.19;;;33.99;24.15
12358;BME280;6243;51.244;6.774;2022-09-01T11:39:01;156192.06;;;34.39;24.01
12358;BME280;6243;51.244;6.774;2022-09-01T11:41:30;156223.06;;;34.51;23.76
12358;BME280;6243;51.244;6.774;2022-09-01T11:44:01;156304.56;;;34.82;23.67
12358;BME280;6243;51.244;6.774;2022-09-01T11:46:28;156230.88;;;34.54;23.30
12358;BME280;6243;51.244;6.774;2022-09-01T11:48:56;155509.72;;;31.73;25.27
12358;BME280;6243;51.244;6.774;2022-09-01T11:51:23;156126.13;;;34.13;23.73
12358;BME280;6243;51.244;6.774;2022-09-01T11:53:50;156128.69;;;34.14;24.18
12358;BME280;6243;51.244;6.774;2022-09-01T11:56:18;156294.25;;;34.78;23.84
12358;BME280;6243;51.244;6.774;2022-09-01T11:58:44;156126.13;;;34.13;23.71
12358;BME280;6243;51.244;6.774;2022-09-01T12:01:15;156137.75;;;34.17;24.17
12358;BME280;6243;51.244;6.774;2022-09-01T12:03:41;156093.72;;;34.00;24.26
12358;BME280;6243;51.244;6.774;2022-09-01T12:06:09;156329.16;;;34.92;23.33
12358;BME280;6243;51.244;6.774;2022-09-01T12:08:38;156522.00;;;35.67;22.60
12358;BME280;6243;51.244;6.774;2022-09-01T12:11:05;156568.56;;;35.85;23.27
12358;BME280;6243;51.244;6.774;2022-09-01T12:13:32;156443.03;;;35.36;21.99
12358;BME280;6243;51.244;6.774;2022-09-01T12:15:59;156352.47;;;35.01;22.40
12358;BME280;6243;51.244;6.774;2022-09-01T12:18:29;156463.72;;;35.44;22.26
12358;BME280;6243;51.244;6.774;2022-09-01T12:20:56;156338.22;;;34.95;22.82
12358;BME280;6243;51.244;6.774;2022-09-01T12:23:24;156267.09;;;34.68;23.45
12358;BME280;6243;51.244;6.774;2022-09-01T12:25:50;156351.13;;;35.01;22.70
12358;BME280;6243;51.244;6.774;2022-09-01T12:28:17;156497.41;;;35.57;22.07
12358;BME280;6243;51.244;6.774;2022-09-01T12:30:42;156655.34;;;36.19;22.48
12358;BME280;6243;51.244;6.774;2022-09-01T12:33:10;156468.88;;;35.46;22.68
12358;BME280;6243;51.244;6.774;2022-09-01T12:35:37;156566.00;;;35.84;22.66
12358;BME280;6243;51.244;6.774;2022-09-01T12:38:22;156735.63;;;36.50;21.14
12358;BME280;6243;51.244;6.774;2022-09-01T12:40:49;156689.00;;;36.32;21.77
12358;BME280;6243;51.244;6.774;2022-09-01T12:43:27;156414.59;;;35.25;21.89
12358;BME280;6243;51.244;6.774;2022-09-01T12:45:53;155990.34;;;33.60;23.43
12358;BME280;6243;51.244;6.774;2022-09-01T12:48:25;155987.75;;;33.59;23.75
12358;BME280;6243;51.244;6.774;2022-09-01T12:50:53;155956.72;;;33.47;23.69
12358;BME280;6243;51.244;6.774;2022-09-01T12:53:22;155923.09;;;33.34;24.39
12358;BME280;6243;51.244;6.774;2022-09-01T12:56:15;156075.63;;;33.93;24.25
12358;BME280;6243;51.244;6.774;2022-09-01T12:58:45;156097.66;;;34.02;23.56
12358;BME280;6243;51.244;6.774;2022-09-01T13:01:23;156159.72;;;34.26;23.71
12358;BME280;6243;51.244;6.774;2022-09-01T13:04:05;155880.50;;;33.17;24.72
12358;BME280;6243;51.244;6.774;2022-09-01T13:06:32;156016.22;;;33.70;23.89
12358;BME280;6243;51.244;6.774;2022-09-01T13:08:58;156136.47;;;34.17;23.65
12358;BME280;6243;51.244;6.774;2022-09-01T13:11:23;156166.19;;;34.28;24.08
12358;BME280;6243;51.244;6.774;2022-09-01T13:13:49;156139.06;;;34.18;24.31